CYUL/YUL METAR and TAF weather

Enter ICAO airport designator
Station Type Date Time Source
CYUL METAR 2022/01/27 23:43 UTC NOAA

CYUL 272343Z 19005KT 120V200 2SM -SN OVC022 M07/M11 A3005 RMK SC8 SLP180


Station Type Date Time Source
CYUL Decoded METAR 2022/01/27 23:43 UTC NOAA

Montreal / Pierre Elliot Trudeau International Airport, Que, Canada (CYUL) 45-28N 073-45W 36M
Jan 27, 2022 - 06:43 PM EST / 2022.01.27 2343 UTC
Wind: from the S (190 degrees) at 6 MPH (5 KT) (direction variable):0
Visibility: 2 mile(s):0
Sky conditions: overcast
Weather: light snow
Temperature: 19 F (-7 C)
Windchill: 10 F (-12 C):1
Dew Point: 12 F (-11 C)
Relative Humidity: 73%
Pressure (altimeter): 30.05 in. Hg (1017 hPa)
ob: CYUL 272343Z 19005KT 120V200 2SM -SN OVC022 M07/M11 A3005 RMK SC8 SLP180
cycle: 23

Station Type Date Time Source
CYUL TAF 2022/01/27 22:48 UTC NOAA

TAF TAF
AMD CYUL 272244Z 2722/2818 17008KT P6SM OVC040
TEMPO 2722/2803 1 1/2SM -SN OVC020
FM280300 17008KT 3SM -SN OVC015
TEMPO 2803/2808 6SM -SN OVC025 PROB40 2803/2808 2SM -SN
FM280800 24010KT 6SM -SN SCT008 OVC015
TEMPO 2808/2815 3SM -SN OVC008
BECMG 2810/2812 27008KT
FM281500 01010KT 5SM -SN OVC015
RMK NXT FCST BY 280000Z

Example: see airport list